Gypsum, CO (81637)

6:12 PM MDT on September 03, 2015 (GMT -0600)
Porphyry Road | | Change Station
CLOSE
Current Station
Personal Weather Station
Location: Gypsum, CO
Elevation: 6286 ft
Nearby Weather Stations

Elev 6286 ft 39.65 °N, 106.96 °W | Updated 26 seconds ago

Partly Cloudy
Partly Cloudy
68.9 °F
Feels Like 68.9 °F
N
0.0
Wind Variable Wind from SSW
Gusts 1.0 mph

Today
High -- | Low -- °F
--% Chance of Precip.
Yesterday
High -- | Low -- °F
Precip. -- in
6:37 AM 7:36 PM
Waning Gibbous, 65% visible
Pressure 30.16 in
Visibility 10.0 miles
Clouds Few 10000 ft
Dew Point 52 °F
Humidity 56%
Rainfall 0.11 in
Snow Depth Not available.
UV 1 out of 12
Pollen 8.00 out of 12
Air Quality Not available.
Flu Activity Not available.
METAR KEGE 032350Z 00000KT 10SM FEW100 21/08 A3016
Pressure 30.16 in
Visibility 10.0 miles
Clouds Few 10000 ft
Dew Point 52 °F
Humidity 56%
Rainfall 0.11 in
Snow Depth Not available.
UV 1 out of 12
Pollen 8.00 out of 12
Air Quality Not available.
Flu Activity Not available.
METAR KEGE 032350Z 00000KT 10SM FEW100 21/08 A3016

10-Day Weather Forecast

×

Almanac

Astronomy

Sep. 03, 2015 Rise Set
Actual Time
Civil Twilight
Nautical Twilight
Astronomical Twilight
Moon
Length of Visible Light
Length of Day
Tomorrow will be .
, % of the Moon is Illuminated

Today's Extremes

State Highs State Lows

Community

WunderPhotos

Upload Photos

1,852,068 photos uploaded!

WunderBlogs® & News

Nearby

Air Quality

  Air Quality AQ Index Pollutant
Not available.

Snow Depth

Station Depth Elevation

Earthquake Activity

City Distance Mag. Time & Date
Minimum magnitude displayed is 2.5.

Coastal Water Temperatures

Place Temperature

Stations

Nearby Weather Stations

Station Location Temp. Windchill Dew Point Humidity Wind Precip. Elev Updated Type